sensor_id;sensor_type;location;lat;lon;timestamp;P1;durP1;ratioP1;P2;durP2;ratioP2
77332;SDS011;66408;51.326;12.070;2023-05-07T00:01:11;10.07;;;5.68;;
77332;SDS011;66408;51.326;12.070;2023-05-07T00:03:37;9.98;;;5.15;;
77332;SDS011;66408;51.326;12.070;2023-05-07T00:06:05;11.63;;;5.25;;
77332;SDS011;66408;51.326;12.070;2023-05-07T00:08:32;10.13;;;5.45;;
77332;SDS011;66408;51.326;12.070;2023-05-07T00:10:59;10.65;;;5.63;;
77332;SDS011;66408;51.326;12.070;2023-05-07T00:13:25;11.73;;;5.65;;
77332;SDS011;66408;51.326;12.070;2023-05-07T00:15:52;9.25;;;5.15;;
77332;SDS011;66408;51.326;12.070;2023-05-07T00:18:18;12.23;;;5.45;;
77332;SDS011;66408;51.326;12.070;2023-05-07T00:20:48;9.95;;;5.00;;
77332;SDS011;66408;51.326;12.070;2023-05-07T00:23:15;10.98;;;5.65;;
77332;SDS011;66408;51.326;12.070;2023-05-07T00:25:41;12.13;;;6.43;;
77332;SDS011;66408;51.326;12.070;2023-05-07T00:28:08;10.18;;;5.82;;
77332;SDS011;66408;51.326;12.070;2023-05-07T00:30:34;11.77;;;6.22;;
77332;SDS011;66408;51.326;12.070;2023-05-07T00:33:04;10.43;;;6.07;;
77332;SDS011;66408;51.326;12.070;2023-05-07T00:35:30;10.05;;;5.72;;
77332;SDS011;66408;51.326;12.070;2023-05-07T00:37:57;11.90;;;6.25;;
77332;SDS011;66408;51.326;12.070;2023-05-07T00:40:23;10.77;;;6.15;;
77332;SDS011;66408;51.326;12.070;2023-05-07T00:42:50;11.05;;;5.68;;
77332;SDS011;66408;51.326;12.070;2023-05-07T00:45:22;11.35;;;5.80;;
77332;SDS011;66408;51.326;12.070;2023-05-07T00:47:55;11.52;;;5.68;;
77332;SDS011;66408;51.326;12.070;2023-05-07T00:50:25;12.50;;;5.95;;
77332;SDS011;66408;51.326;12.070;2023-05-07T00:52:52;9.75;;;5.05;;
77332;SDS011;66408;51.326;12.070;2023-05-07T00:55:19;9.02;;;4.97;;
77332;SDS011;66408;51.326;12.070;2023-05-07T00:57:46;10.30;;;4.97;;
77332;SDS011;66408;51.326;12.070;2023-05-07T01:00:13;8.18;;;4.45;;
77332;SDS011;66408;51.326;12.070;2023-05-07T01:02:40;10.07;;;4.57;;
77332;SDS011;66408;51.326;12.070;2023-05-07T01:05:09;8.00;;;4.30;;
77332;SDS011;66408;51.326;12.070;2023-05-07T01:07:38;9.88;;;4.57;;
77332;SDS011;66408;51.326;12.070;2023-05-07T01:10:07;11.18;;;5.10;;
77332;SDS011;66408;51.326;12.070;2023-05-07T01:12:35;8.00;;;4.60;;
77332;SDS011;66408;51.326;12.070;2023-05-07T01:15:04;9.07;;;5.10;;
77332;SDS011;66408;51.326;12.070;2023-05-07T01:17:35;9.38;;;5.22;;
77332;SDS011;66408;51.326;12.070;2023-05-07T01:20:04;8.35;;;4.18;;
77332;SDS011;66408;51.326;12.070;2023-05-07T01:22:35;8.80;;;4.68;;
77332;SDS011;66408;51.326;12.070;2023-05-07T01:25:03;7.85;;;4.32;;
77332;SDS011;66408;51.326;12.070;2023-05-07T01:27:30;7.32;;;4.32;;
77332;SDS011;66408;51.326;12.070;2023-05-07T01:29:57;7.10;;;4.13;;
77332;SDS011;66408;51.326;12.070;2023-05-07T01:32:38;9.40;;;4.93;;
77332;SDS011;66408;51.326;12.070;2023-05-07T01:35:10;8.68;;;4.63;;
77332;SDS011;66408;51.326;12.070;2023-05-07T01:37:38;11.13;;;4.78;;
77332;SDS011;66408;51.326;12.070;2023-05-07T01:40:06;10.90;;;5.00;;
77332;SDS011;66408;51.326;12.070;2023-05-07T01:42:34;8.00;;;4.75;;
77332;SDS011;66408;51.326;12.070;2023-05-07T01:45:01;8.77;;;4.60;;
77332;SDS011;66408;51.326;12.070;2023-05-07T01:47:28;8.80;;;4.50;;
77332;SDS011;66408;51.326;12.070;2023-05-07T01:49:56;7.85;;;4.25;;
77332;SDS011;66408;51.326;12.070;2023-05-07T01:52:24;9.27;;;4.78;;
77332;SDS011;66408;51.326;12.070;2023-05-07T01:54:51;8.52;;;4.50;;
77332;SDS011;66408;51.326;12.070;2023-05-07T01:57:18;7.88;;;4.20;;
77332;SDS011;66408;51.326;12.070;2023-05-07T01:59:44;8.30;;;4.88;;
77332;SDS011;66408;51.326;12.070;2023-05-07T02:02:11;8.60;;;4.68;;
77332;SDS011;66408;51.326;12.070;2023-05-07T02:04:37;11.40;;;4.88;;
77332;SDS011;66408;51.326;12.070;2023-05-07T02:07:04;8.88;;;4.75;;
77332;SDS011;66408;51.326;12.070;2023-05-07T02:09:30;10.27;;;5.18;;
77332;SDS011;66408;51.326;12.070;2023-05-07T02:11:56;9.65;;;4.95;;
77332;SDS011;66408;51.326;12.070;2023-05-07T02:14:23;10.63;;;5.30;;
77332;SDS011;66408;51.326;12.070;2023-05-07T02:16:49;9.95;;;5.22;;
77332;SDS011;66408;51.326;12.070;2023-05-07T02:19:16;11.77;;;5.72;;
77332;SDS011;66408;51.326;12.070;2023-05-07T02:21:43;9.60;;;5.50;;
77332;SDS011;66408;51.326;12.070;2023-05-07T02:24:10;8.98;;;5.53;;
77332;SDS011;66408;51.326;12.070;2023-05-07T02:26:36;11.73;;;6.20;;
77332;SDS011;66408;51.326;12.070;2023-05-07T02:29:03;10.30;;;5.80;;
77332;SDS011;66408;51.326;12.070;2023-05-07T02:31:29;9.82;;;5.78;;
77332;SDS011;66408;51.326;12.070;2023-05-07T02:33:56;12.73;;;6.15;;
77332;SDS011;66408;51.326;12.070;2023-05-07T02:36:23;12.05;;;6.35;;
77332;SDS011;66408;51.326;12.070;2023-05-07T02:38:49;10.05;;;5.85;;
77332;SDS011;66408;51.326;12.070;2023-05-07T02:41:16;12.27;;;6.60;;
77332;SDS011;66408;51.326;12.070;2023-05-07T02:43:42;10.25;;;5.80;;
77332;SDS011;66408;51.326;12.070;2023-05-07T02:46:09;11.00;;;6.25;;
77332;SDS011;66408;51.326;12.070;2023-05-07T02:48:35;11.20;;;6.15;;
77332;SDS011;66408;51.326;12.070;2023-05-07T02:51:02;11.07;;;6.45;;
77332;SDS011;66408;51.326;12.070;2023-05-07T02:53:29;12.23;;;6.25;;
77332;SDS011;66408;51.326;12.070;2023-05-07T02:55:57;12.40;;;6.20;;
77332;SDS011;66408;51.326;12.070;2023-05-07T02:58:24;13.90;;;6.43;;
77332;SDS011;66408;51.326;12.070;2023-05-07T03:00:50;14.35;;;6.57;;
77332;SDS011;66408;51.326;12.070;2023-05-07T03:03:17;13.60;;;6.95;;
77332;SDS011;66408;51.326;12.070;2023-05-07T03:05:44;10.48;;;5.93;;
77332;SDS011;66408;51.326;12.070;2023-05-07T03:08:11;13.07;;;6.63;;
77332;SDS011;66408;51.326;12.070;2023-05-07T03:10:37;12.48;;;6.57;;
77332;SDS011;66408;51.326;12.070;2023-05-07T03:13:04;14.23;;;7.03;;
77332;SDS011;66408;51.326;12.070;2023-05-07T03:15:31;13.27;;;7.10;;
77332;SDS011;66408;51.326;12.070;2023-05-07T03:17:57;13.10;;;7.03;;
77332;SDS011;66408;51.326;12.070;2023-05-07T03:20:24;14.60;;;7.18;;
77332;SDS011;66408;51.326;12.070;2023-05-07T03:22:50;14.20;;;7.40;;
77332;SDS011;66408;51.326;12.070;2023-05-07T03:25:17;15.02;;;6.68;;
77332;SDS011;66408;51.326;12.070;2023-05-07T03:27:43;11.95;;;6.70;;
77332;SDS011;66408;51.326;12.070;2023-05-07T03:30:10;13.45;;;6.60;;
77332;SDS011;66408;51.326;12.070;2023-05-07T03:32:37;13.30;;;6.97;;
77332;SDS011;66408;51.326;12.070;2023-05-07T03:35:04;13.43;;;7.00;;
77332;SDS011;66408;51.326;12.070;2023-05-07T03:37:31;13.27;;;7.00;;
77332;SDS011;66408;51.326;12.070;2023-05-07T03:39:58;14.30;;;6.95;;
77332;SDS011;66408;51.326;12.070;2023-05-07T03:42:24;13.65;;;7.18;;
77332;SDS011;66408;51.326;12.070;2023-05-07T03:44:50;13.27;;;7.45;;
77332;SDS011;66408;51.326;12.070;2023-05-07T03:47:17;15.13;;;7.57;;
77332;SDS011;66408;51.326;12.070;2023-05-07T03:49:43;12.95;;;7.20;;
77332;SDS011;66408;51.326;12.070;2023-05-07T03:52:10;13.85;;;7.90;;
77332;SDS011;66408;51.326;12.070;2023-05-07T03:54:36;15.15;;;8.20;;
77332;SDS011;66408;51.326;12.070;2023-05-07T03:57:03;17.25;;;8.45;;
77332;SDS011;66408;51.326;12.070;2023-05-07T03:59:29;13.02;;;7.35;;
77332;SDS011;66408;51.326;12.070;2023-05-07T04:01:56;14.77;;;7.53;;
77332;SDS011;66408;51.326;12.070;2023-05-07T04:04:22;12.82;;;7.53;;
77332;SDS011;66408;51.326;12.070;2023-05-07T04:06:49;13.57;;;7.68;;
77332;SDS011;66408;51.326;12.070;2023-05-07T04:09:16;13.02;;;7.43;;
77332;SDS011;66408;51.326;12.070;2023-05-07T04:11:42;13.98;;;7.20;;
77332;SDS011;66408;51.326;12.070;2023-05-07T04:14:08;13.63;;;7.88;;
77332;SDS011;66408;51.326;12.070;2023-05-07T04:16:35;12.35;;;6.55;;
77332;SDS011;66408;51.326;12.070;2023-05-07T04:19:02;15.05;;;7.28;;
77332;SDS011;66408;51.326;12.070;2023-05-07T04:21:28;14.30;;;7.88;;
77332;SDS011;66408;51.326;12.070;2023-05-07T04:23:55;13.38;;;7.25;;
77332;SDS011;66408;51.326;12.070;2023-05-07T04:26:22;13.90;;;7.47;;
77332;SDS011;66408;51.326;12.070;2023-05-07T04:28:49;14.88;;;7.70;;
77332;SDS011;66408;51.326;12.070;2023-05-07T04:31:16;15.98;;;8.13;;
77332;SDS011;66408;51.326;12.070;2023-05-07T04:33:42;15.43;;;8.40;;
77332;SDS011;66408;51.326;12.070;2023-05-07T04:36:11;13.35;;;7.75;;
77332;SDS011;66408;51.326;12.070;2023-05-07T04:38:38;14.13;;;6.88;;
77332;SDS011;66408;51.326;12.070;2023-05-07T04:41:05;16.40;;;8.23;;
77332;SDS011;66408;51.326;12.070;2023-05-07T04:43:32;14.85;;;8.02;;
77332;SDS011;66408;51.326;12.070;2023-05-07T04:45:59;14.55;;;7.38;;
77332;SDS011;66408;51.326;12.070;2023-05-07T04:48:25;15.00;;;7.65;;
77332;SDS011;66408;51.326;12.070;2023-05-07T04:50:52;14.80;;;8.00;;
77332;SDS011;66408;51.326;12.070;2023-05-07T04:53:19;14.60;;;7.53;;
77332;SDS011;66408;51.326;12.070;2023-05-07T04:55:46;15.50;;;8.15;;
77332;SDS011;66408;51.326;12.070;2023-05-07T04:58:12;16.08;;;7.95;;
77332;SDS011;66408;51.326;12.070;2023-05-07T05:00:39;14.18;;;7.80;;
77332;SDS011;66408;51.326;12.070;2023-05-07T05:03:08;15.07;;;7.45;;
77332;SDS011;66408;51.326;12.070;2023-05-07T05:05:34;14.18;;;7.30;;
77332;SDS011;66408;51.326;12.070;2023-05-07T05:08:01;16.45;;;7.63;;
77332;SDS011;66408;51.326;12.070;2023-05-07T05:10:27;16.20;;;8.05;;
77332;SDS011;66408;51.326;12.070;2023-05-07T05:12:54;12.10;;;6.78;;
77332;SDS011;66408;51.326;12.070;2023-05-07T05:15:20;15.90;;;8.00;;
77332;SDS011;66408;51.326;12.070;2023-05-07T05:17:47;12.75;;;6.80;;
77332;SDS011;66408;51.326;12.070;2023-05-07T05:20:14;11.40;;;7.47;;
77332;SDS011;66408;51.326;12.070;2023-05-07T05:22:41;13.93;;;7.20;;
77332;SDS011;66408;51.326;12.070;2023-05-07T05:25:08;13.35;;;7.63;;
77332;SDS011;66408;51.326;12.070;2023-05-07T05:27:34;13.32;;;8.15;;
77332;SDS011;66408;51.326;12.070;2023-05-07T05:30:02;12.95;;;6.75;;
77332;SDS011;66408;51.326;12.070;2023-05-07T05:32:29;14.50;;;7.22;;
77332;SDS011;66408;51.326;12.070;2023-05-07T05:34:56;14.55;;;7.60;;
77332;SDS011;66408;51.326;12.070;2023-05-07T05:37:22;15.27;;;7.90;;
77332;SDS011;66408;51.326;12.070;2023-05-07T05:39:49;15.35;;;7.00;;
77332;SDS011;66408;51.326;12.070;2023-05-07T05:42:15;11.52;;;6.53;;
77332;SDS011;66408;51.326;12.070;2023-05-07T05:44:42;16.83;;;7.28;;
77332;SDS011;66408;51.326;12.070;2023-05-07T05:47:08;15.23;;;7.72;;
77332;SDS011;66408;51.326;12.070;2023-05-07T05:49:35;13.13;;;7.15;;
77332;SDS011;66408;51.326;12.070;2023-05-07T05:52:01;12.95;;;6.88;;
77332;SDS011;66408;51.326;12.070;2023-05-07T05:54:28;11.57;;;6.88;;
77332;SDS011;66408;51.326;12.070;2023-05-07T05:56:54;14.07;;;7.68;;
77332;SDS011;66408;51.326;12.070;2023-05-07T05:59:21;12.55;;;7.03;;
77332;SDS011;66408;51.326;12.070;2023-05-07T06:01:47;14.95;;;7.82;;
77332;SDS011;66408;51.326;12.070;2023-05-07T06:04:14;13.43;;;7.57;;
77332;SDS011;66408;51.326;12.070;2023-05-07T06:06:40;12.10;;;6.90;;
77332;SDS011;66408;51.326;12.070;2023-05-07T06:09:07;13.43;;;7.63;;
77332;SDS011;66408;51.326;12.070;2023-05-07T06:11:34;11.80;;;6.47;;
77332;SDS011;66408;51.326;12.070;2023-05-07T06:14:00;13.02;;;6.35;;
77332;SDS011;66408;51.326;12.070;2023-05-07T06:16:27;11.02;;;6.50;;
77332;SDS011;66408;51.326;12.070;2023-05-07T06:18:53;12.68;;;6.88;;
77332;SDS011;66408;51.326;12.070;2023-05-07T06:21:20;11.30;;;6.70;;
77332;SDS011;66408;51.326;12.070;2023-05-07T06:23:46;12.45;;;7.18;;
77332;SDS011;66408;51.326;12.070;2023-05-07T06:26:13;12.27;;;6.85;;
77332;SDS011;66408;51.326;12.070;2023-05-07T06:28:39;11.20;;;6.10;;
77332;SDS011;66408;51.326;12.070;2023-05-07T06:31:12;13.18;;;7.13;;
77332;SDS011;66408;51.326;12.070;2023-05-07T06:33:39;13.30;;;6.78;;
77332;SDS011;66408;51.326;12.070;2023-05-07T06:36:06;13.95;;;7.18;;
77332;SDS011;66408;51.326;12.070;2023-05-07T06:38:33;12.10;;;6.75;;
77332;SDS011;66408;51.326;12.070;2023-05-07T06:41:00;13.55;;;6.72;;
77332;SDS011;66408;51.326;12.070;2023-05-07T06:43:26;13.02;;;6.97;;
77332;SDS011;66408;51.326;12.070;2023-05-07T06:45:53;11.77;;;6.93;;
77332;SDS011;66408;51.326;12.070;2023-05-07T06:48:19;10.27;;;6.28;;
77332;SDS011;66408;51.326;12.070;2023-05-07T06:50:46;10.88;;;6.28;;
77332;SDS011;66408;51.326;12.070;2023-05-07T06:53:12;13.05;;;6.40;;
77332;SDS011;66408;51.326;12.070;2023-05-07T06:55:39;9.40;;;5.72;;
77332;SDS011;66408;51.326;12.070;2023-05-07T06:58:05;10.73;;;6.05;;
77332;SDS011;66408;51.326;12.070;2023-05-07T07:00:32;11.77;;;6.32;;
77332;SDS011;66408;51.326;12.070;2023-05-07T07:02:58;9.23;;;5.22;;
77332;SDS011;66408;51.326;12.070;2023-05-07T07:05:26;10.27;;;5.78;;
77332;SDS011;66408;51.326;12.070;2023-05-07T07:07:53;10.40;;;5.78;;
77332;SDS011;66408;51.326;12.070;2023-05-07T07:10:19;7.93;;;4.65;;
77332;SDS011;66408;51.326;12.070;2023-05-07T07:12:46;8.43;;;4.82;;
77332;SDS011;66408;51.326;12.070;2023-05-07T07:15:13;10.48;;;5.72;;
77332;SDS011;66408;51.326;12.070;2023-05-07T07:17:39;11.05;;;5.93;;
77332;SDS011;66408;51.326;12.070;2023-05-07T07:20:06;8.57;;;5.10;;
77332;SDS011;66408;51.326;12.070;2023-05-07T07:22:36;12.90;;;5.93;;
77332;SDS011;66408;51.326;12.070;2023-05-07T07:25:03;10.00;;;5.28;;
77332;SDS011;66408;51.326;12.070;2023-05-07T07:27:29;9.18;;;4.85;;
77332;SDS011;66408;51.326;12.070;2023-05-07T07:29:56;9.57;;;5.22;;
77332;SDS011;66408;51.326;12.070;2023-05-07T07:32:22;8.98;;;4.88;;
77332;SDS011;66408;51.326;12.070;2023-05-07T07:34:49;9.85;;;4.93;;
77332;SDS011;66408;51.326;12.070;2023-05-07T07:37:15;8.13;;;4.72;;
77332;SDS011;66408;51.326;12.070;2023-05-07T07:39:42;7.88;;;4.20;;
77332;SDS011;66408;51.326;12.070;2023-05-07T07:42:08;9.30;;;5.43;;
77332;SDS011;66408;51.326;12.070;2023-05-07T07:44:35;10.18;;;5.05;;
77332;SDS011;66408;51.326;12.070;2023-05-07T07:47:10;10.45;;;5.25;;
77332;SDS011;66408;51.326;12.070;2023-05-07T07:49:37;9.13;;;5.05;;
77332;SDS011;66408;51.326;12.070;2023-05-07T07:52:04;8.57;;;4.60;;
77332;SDS011;66408;51.326;12.070;2023-05-07T07:54:30;8.63;;;4.80;;
77332;SDS011;66408;51.326;12.070;2023-05-07T07:56:57;9.52;;;5.57;;
77332;SDS011;66408;51.326;12.070;2023-05-07T07:59:24;7.85;;;5.22;;
77332;SDS011;66408;51.326;12.070;2023-05-07T08:01:51;9.23;;;4.85;;
77332;SDS011;66408;51.326;12.070;2023-05-07T08:04:21;10.02;;;4.90;;
77332;SDS011;66408;51.326;12.070;2023-05-07T08:06:47;9.38;;;5.22;;
77332;SDS011;66408;51.326;12.070;2023-05-07T08:09:14;11.23;;;5.45;;
77332;SDS011;66408;51.326;12.070;2023-05-07T08:11:41;8.32;;;4.35;;
77332;SDS011;66408;51.326;12.070;2023-05-07T08:14:07;6.25;;;3.70;;
77332;SDS011;66408;51.326;12.070;2023-05-07T08:16:34;7.00;;;4.50;;
77332;SDS011;66408;51.326;12.070;2023-05-07T08:19:00;7.57;;;4.25;;
77332;SDS011;66408;51.326;12.070;2023-05-07T08:21:27;8.52;;;4.72;;
77332;SDS011;66408;51.326;12.070;2023-05-07T08:23:53;8.68;;;5.65;;
77332;SDS011;66408;51.326;12.070;2023-05-07T08:26:20;10.43;;;6.22;;
77332;SDS011;66408;51.326;12.070;2023-05-07T08:28:47;7.75;;;4.82;;
77332;SDS011;66408;51.326;12.070;2023-05-07T08:31:13;7.60;;;4.80;;
77332;SDS011;66408;51.326;12.070;2023-05-07T08:33:40;8.35;;;4.88;;
77332;SDS011;66408;51.326;12.070;2023-05-07T08:36:06;9.10;;;5.18;;
77332;SDS011;66408;51.326;12.070;2023-05-07T08:38:33;8.00;;;5.25;;
77332;SDS011;66408;51.326;12.070;2023-05-07T08:40:59;7.53;;;4.85;;
77332;SDS011;66408;51.326;12.070;2023-05-07T08:43:26;11.02;;;7.68;;
77332;SDS011;66408;51.326;12.070;2023-05-07T08:45:54;17.42;;;10.43;;
77332;SDS011;66408;51.326;12.070;2023-05-07T08:48:22;17.92;;;10.15;;
77332;SDS011;66408;51.326;12.070;2023-05-07T08:50:51;8.73;;;6.03;;
77332;SDS011;66408;51.326;12.070;2023-05-07T08:53:18;7.40;;;4.68;;
77332;SDS011;66408;51.326;12.070;2023-05-07T08:55:46;7.65;;;4.50;;
77332;SDS011;66408;51.326;12.070;2023-05-07T08:58:13;6.97;;;4.72;;
77332;SDS011;66408;51.326;12.070;2023-05-07T09:00:40;8.35;;;4.60;;
77332;SDS011;66408;51.326;12.070;2023-05-07T09:03:08;7.90;;;4.88;;
77332;SDS011;66408;51.326;12.070;2023-05-07T09:05:38;7.70;;;4.95;;
77332;SDS011;66408;51.326;12.070;2023-05-07T09:08:05;6.72;;;4.55;;
77332;SDS011;66408;51.326;12.070;2023-05-07T09:10:33;6.80;;;4.35;;
77332;SDS011;66408;51.326;12.070;2023-05-07T09:13:00;6.50;;;4.18;;
77332;SDS011;66408;51.326;12.070;2023-05-07T09:15:27;7.10;;;3.92;;
77332;SDS011;66408;51.326;12.070;2023-05-07T09:17:58;6.38;;;3.83;;
77332;SDS011;66408;51.326;12.070;2023-05-07T09:20:27;6.05;;;4.38;;
77332;SDS011;66408;51.326;12.070;2023-05-07T09:22:56;5.10;;;3.60;;
77332;SDS011;66408;51.326;12.070;2023-05-07T09:25:28;6.13;;;4.05;;
77332;SDS011;66408;51.326;12.070;2023-05-07T09:27:56;6.55;;;3.95;;
77332;SDS011;66408;51.326;12.070;2023-05-07T09:30:23;7.00;;;3.75;;
77332;SDS011;66408;51.326;12.070;2023-05-07T09:32:53;6.05;;;4.15;;
77332;SDS011;66408;51.326;12.070;2023-05-07T09:35:20;6.93;;;3.78;;
77332;SDS011;66408;51.326;12.070;2023-05-07T09:37:53;6.18;;;3.78;;
77332;SDS011;66408;51.326;12.070;2023-05-07T09:40:28;6.53;;;3.70;;
77332;SDS011;66408;51.326;12.070;2023-05-07T09:45:28;5.40;;;3.90;;
77332;SDS011;66408;51.326;12.070;2023-05-07T09:47:56;7.55;;;4.10;;
77332;SDS011;66408;51.326;12.070;2023-05-07T09:50:26;6.18;;;3.80;;
77332;SDS011;66408;51.326;12.070;2023-05-07T09:52:55;6.80;;;4.25;;
77332;SDS011;66408;51.326;12.070;2023-05-07T09:55:22;7.05;;;3.97;;
77332;SDS011;66408;51.326;12.070;2023-05-07T09:57:53;5.78;;;3.88;;
77332;SDS011;66408;51.326;12.070;2023-05-07T10:00:22;5.60;;;3.90;;
77332;SDS011;66408;51.326;12.070;2023-05-07T10:02:49;5.43;;;3.60;;
77332;SDS011;66408;51.326;12.070;2023-05-07T10:05:19;7.38;;;3.88;;
77332;SDS011;66408;51.326;12.070;2023-05-07T10:07:49;5.75;;;3.67;;
77332;SDS011;66408;51.326;12.070;2023-05-07T10:10:17;5.85;;;3.80;;
77332;SDS011;66408;51.326;12.070;2023-05-07T10:12:44;6.22;;;3.83;;
77332;SDS011;66408;51.326;12.070;2023-05-07T10:15:11;5.53;;;3.92;;
77332;SDS011;66408;51.326;12.070;2023-05-07T10:17:39;6.18;;;3.85;;
77332;SDS011;66408;51.326;12.070;2023-05-07T10:20:06;6.35;;;4.50;;
77332;SDS011;66408;51.326;12.070;2023-05-07T10:22:44;5.57;;;3.85;;
77332;SDS011;66408;51.326;12.070;2023-05-07T10:25:34;6.78;;;4.28;;
77332;SDS011;66408;51.326;12.070;2023-05-07T10:28:07;7.50;;;4.15;;
77332;SDS011;66408;51.326;12.070;2023-05-07T10:33:16;6.03;;;4.10;;
77332;SDS011;66408;51.326;12.070;2023-05-07T10:35:48;7.22;;;4.22;;
77332;SDS011;66408;51.326;12.070;2023-05-07T10:38:15;6.22;;;4.30;;
77332;SDS011;66408;51.326;12.070;2023-05-07T10:40:41;7.57;;;4.53;;
77332;SDS011;66408;51.326;12.070;2023-05-07T10:43:08;6.63;;;4.30;;
77332;SDS011;66408;51.326;12.070;2023-05-07T10:45:36;7.75;;;4.22;;
77332;SDS011;66408;51.326;12.070;2023-05-07T10:48:12;6.13;;;3.90;;
77332;SDS011;66408;51.326;12.070;2023-05-07T10:50:43;4.95;;;3.70;;
77332;SDS011;66408;51.326;12.070;2023-05-07T10:55:48;6.60;;;4.07;;
77332;SDS011;66408;51.326;12.070;2023-05-07T10:58:38;6.38;;;4.35;;
77332;SDS011;66408;51.326;12.070;2023-05-07T11:01:04;6.13;;;4.30;;
77332;SDS011;66408;51.326;12.070;2023-05-07T11:03:30;6.50;;;3.97;;
77332;SDS011;66408;51.326;12.070;2023-05-07T11:06:10;9.10;;;4.00;;
77332;SDS011;66408;51.326;12.070;2023-05-07T11:09:13;7.38;;;3.97;;
77332;SDS011;66408;51.326;12.070;2023-05-07T11:14:13;4.78;;;3.30;;
77332;SDS011;66408;51.326;12.070;2023-05-07T11:16:41;4.70;;;2.92;;
77332;SDS011;66408;51.326;12.070;2023-05-07T11:19:09;4.97;;;3.45;;
77332;SDS011;66408;51.326;12.070;2023-05-07T11:21:37;5.68;;;3.10;;
77332;SDS011;66408;51.326;12.070;2023-05-07T11:24:05;4.28;;;2.85;;
77332;SDS011;66408;51.326;12.070;2023-05-07T11:26:43;4.55;;;3.13;;
77332;SDS011;66408;51.326;12.070;2023-05-07T11:29:12;5.80;;;3.30;;
77332;SDS011;66408;51.326;12.070;2023-05-07T11:31:40;5.03;;;3.42;;
77332;SDS011;66408;51.326;12.070;2023-05-07T11:34:06;4.93;;;3.08;;
77332;SDS011;66408;51.326;12.070;2023-05-07T11:36:34;5.93;;;3.50;;
77332;SDS011;66408;51.326;12.070;2023-05-07T11:39:00;6.28;;;3.20;;
77332;SDS011;66408;51.326;12.070;2023-05-07T11:41:34;4.60;;;3.25;;
77332;SDS011;66408;51.326;12.070;2023-05-07T11:44:03;4.05;;;3.10;;
77332;SDS011;66408;51.326;12.070;2023-05-07T11:46:29;4.15;;;3.00;;
77332;SDS011;66408;51.326;12.070;2023-05-07T11:48:56;4.70;;;2.83;;
77332;SDS011;66408;51.326;12.070;2023-05-07T11:51:24;4.18;;;3.10;;
77332;SDS011;66408;51.326;12.070;2023-05-07T11:56:19;5.65;;;3.85;;
77332;SDS011;66408;51.326;12.070;2023-05-07T11:58:46;9.48;;;4.38;;
77332;SDS011;66408;51.326;12.070;2023-05-07T12:01:14;5.63;;;3.78;;
77332;SDS011;66408;51.326;12.070;2023-05-07T12:03:43;5.15;;;3.33;;
77332;SDS011;66408;51.326;12.070;2023-05-07T12:06:15;4.55;;;3.28;;
77332;SDS011;66408;51.326;12.070;2023-05-07T12:08:42;6.90;;;3.78;;
77332;SDS011;66408;51.326;12.070;2023-05-07T12:11:14;4.30;;;3.05;;
77332;SDS011;66408;51.326;12.070;2023-05-07T12:13:43;4.78;;;3.38;;
77332;SDS011;66408;51.326;12.070;2023-05-07T12:16:10;4.88;;;3.17;;
77332;SDS011;66408;51.326;12.070;2023-05-07T12:18:37;5.68;;;3.40;;
77332;SDS011;66408;51.326;12.070;2023-05-07T12:21:04;5.13;;;3.42;;
77332;SDS011;66408;51.326;12.070;2023-05-07T12:23:32;5.72;;;3.70;;
77332;SDS011;66408;51.326;12.070;2023-05-07T12:26:00;5.60;;;3.60;;
77332;SDS011;66408;51.326;12.070;2023-05-07T12:28:27;6.68;;;3.63;;
77332;SDS011;66408;51.326;12.070;2023-05-07T12:30:54;5.32;;;3.40;;
77332;SDS011;66408;51.326;12.070;2023-05-07T12:33:24;5.18;;;3.50;;
77332;SDS011;66408;51.326;12.070;2023-05-07T12:35:53;5.30;;;3.53;;
77332;SDS011;66408;51.326;12.070;2023-05-07T12:38:21;6.40;;;3.97;;
77332;SDS011;66408;51.326;12.070;2023-05-07T12:40:53;5.57;;;3.50;;
77332;SDS011;66408;51.326;12.070;2023-05-07T12:43:21;6.50;;;4.00;;
77332;SDS011;66408;51.326;12.070;2023-05-07T12:45:51;8.65;;;4.53;;
77332;SDS011;66408;51.326;12.070;2023-05-07T12:48:21;6.90;;;4.00;;
77332;SDS011;66408;51.326;12.070;2023-05-07T12:50:52;6.22;;;3.85;;
77332;SDS011;66408;51.326;12.070;2023-05-07T12:53:20;5.45;;;3.60;;
77332;SDS011;66408;51.326;12.070;2023-05-07T12:55:49;5.82;;;3.85;;
77332;SDS011;66408;51.326;12.070;2023-05-07T13:00:44;8.10;;;4.05;;
77332;SDS011;66408;51.326;12.070;2023-05-07T13:03:17;5.95;;;3.67;;
77332;SDS011;66408;51.326;12.070;2023-05-07T13:10:59;7.22;;;4.28;;
77332;SDS011;66408;51.326;12.070;2023-05-07T13:13:33;7.07;;;3.58;;
77332;SDS011;66408;51.326;12.070;2023-05-07T13:16:02;6.88;;;3.88;;
77332;SDS011;66408;51.326;12.070;2023-05-07T13:18:30;7.00;;;3.92;;
77332;SDS011;66408;51.326;12.070;2023-05-07T13:20:57;5.70;;;3.47;;
77332;SDS011;66408;51.326;12.070;2023-05-07T13:23:24;4.63;;;3.25;;
77332;SDS011;66408;51.326;12.070;2023-05-07T13:25:51;5.25;;;3.53;;
77332;SDS011;66408;51.326;12.070;2023-05-07T13:28:20;7.07;;;4.07;;
77332;SDS011;66408;51.326;12.070;2023-05-07T13:30:46;6.25;;;3.90;;
77332;SDS011;66408;51.326;12.070;2023-05-07T13:33:13;5.75;;;3.72;;
77332;SDS011;66408;51.326;12.070;2023-05-07T13:35:40;6.07;;;3.80;;
77332;SDS011;66408;51.326;12.070;2023-05-07T13:38:06;6.70;;;3.50;;
77332;SDS011;66408;51.326;12.070;2023-05-07T13:40:33;6.07;;;3.80;;
77332;SDS011;66408;51.326;12.070;2023-05-07T13:43:00;5.53;;;3.25;;
77332;SDS011;66408;51.326;12.070;2023-05-07T13:45:28;6.07;;;3.47;;
77332;SDS011;66408;51.326;12.070;2023-05-07T13:47:56;5.72;;;3.58;;
77332;SDS011;66408;51.326;12.070;2023-05-07T13:50:23;7.70;;;3.58;;
77332;SDS011;66408;51.326;12.070;2023-05-07T13:52:50;4.90;;;3.53;;
77332;SDS011;66408;51.326;12.070;2023-05-07T13:55:17;5.35;;;3.47;;
77332;SDS011;66408;51.326;12.070;2023-05-07T13:57:44;5.70;;;4.10;;
77332;SDS011;66408;51.326;12.070;2023-05-07T14:00:11;5.22;;;3.15;;
77332;SDS011;66408;51.326;12.070;2023-05-07T14:02:39;5.45;;;3.50;;
77332;SDS011;66408;51.326;12.070;2023-05-07T14:05:07;5.40;;;3.63;;
77332;SDS011;66408;51.326;12.070;2023-05-07T14:07:33;5.40;;;3.58;;
77332;SDS011;66408;51.326;12.070;2023-05-07T14:10:02;5.22;;;3.10;;
77332;SDS011;66408;51.326;12.070;2023-05-07T14:12:29;4.43;;;2.97;;
77332;SDS011;66408;51.326;12.070;2023-05-07T14:14:56;5.70;;;3.45;;
77332;SDS011;66408;51.326;12.070;2023-05-07T14:17:22;4.75;;;3.20;;
77332;SDS011;66408;51.326;12.070;2023-05-07T14:19:51;4.13;;;2.80;;
77332;SDS011;66408;51.326;12.070;2023-05-07T14:22:20;4.53;;;3.00;;
77332;SDS011;66408;51.326;12.070;2023-05-07T14:24:49;3.70;;;2.88;;
77332;SDS011;66408;51.326;12.070;2023-05-07T14:27:31;4.93;;;2.72;;
77332;SDS011;66408;51.326;12.070;2023-05-07T14:29:58;4.93;;;3.15;;
77332;SDS011;66408;51.326;12.070;2023-05-07T14:32:25;5.13;;;3.42;;
77332;SDS011;66408;51.326;12.070;2023-05-07T14:34:51;4.07;;;2.97;;
77332;SDS011;66408;51.326;12.070;2023-05-07T14:37:17;3.95;;;2.80;;
77332;SDS011;66408;51.326;12.070;2023-05-07T14:39:46;4.88;;;3.00;;
77332;SDS011;66408;51.326;12.070;2023-05-07T14:42:15;4.68;;;2.85;;
77332;SDS011;66408;51.326;12.070;2023-05-07T14:44:42;5.00;;;3.17;;
77332;SDS011;66408;51.326;12.070;2023-05-07T14:47:09;4.10;;;2.83;;
77332;SDS011;66408;51.326;12.070;2023-05-07T14:49:35;4.82;;;2.70;;
77332;SDS011;66408;51.326;12.070;2023-05-07T14:52:02;4.07;;;2.47;;